Time;durP1;ratioP1;P1;durP2;ratioP2;P2;SDS_P1;SDS_P2;PMS_P1;PMS_P2;Temp;Humidity;BMP_temperature;BMP_pressure;BME280_temperature;BME280_humidity;BME280_pressure;Samples;Min_cycle;Max_cycle;Signal;HPM_P1;HPM_P2
2021/09/12 00:00:10;;;;;;;12.17;6.83;;;;;;;16.42;64.50;100923.16;1671580;86;21304;-59
2021/09/12 00:02:42;;;;;;;12.55;5.97;;;;;;;16.43;64.63;100926.95;1670309;86;21315;-59
2021/09/12 00:05:17;;;;;;;11.53;6.95;;;;;;;16.42;64.63;100920.52;1670050;86;21180;-59
2021/09/12 00:07:50;;;;;;;9.85;6.10;;;;;;;16.43;64.75;100924.31;1670227;86;21227;-59
2021/09/12 00:10:23;;;;;;;12.67;6.20;;;;;;;16.42;64.89;100920.52;1646779;86;21272;-59
2021/09/12 00:12:57;;;;;;;10.28;7.00;;;;;;;16.42;64.80;100920.03;1670380;86;21302;-58
2021/09/12 00:15:30;;;;;;;12.07;7.15;;;;;;;16.42;65.02;100922.67;1671656;86;21288;-59
2021/09/12 00:18:03;;;;;;;11.70;5.73;;;;;;;16.38;65.15;100920.02;1670302;86;21304;-59
2021/09/12 00:20:36;;;;;;;16.53;7.40;;;;;;;16.33;65.27;100918.34;1671565;86;21992;-59
2021/09/12 00:23:10;;;;;;;17.35;8.23;;;;;;;16.25;65.43;100914.80;1669867;85;21168;-59
2021/09/12 00:25:43;;;;;;;14.80;8.13;;;;;;;16.17;65.53;100916.90;1671478;86;21191;-59
2021/09/12 00:28:16;;;;;;;;;;;;;;;16.10;65.68;100910.09;1672395;86;21173;-59
2021/09/12 00:30:50;;;;;;;14.33;7.67;;;;;;;16.05;65.87;100915.50;1669828;86;20571;-59
2021/09/12 00:33:23;;;;;;;16.73;7.83;;;;;;;15.99;65.99;100912.17;1670289;86;21367;-59
2021/09/12 00:35:56;;;;;;;;;;;;;;;15.96;66.14;100908.03;1673736;86;21271;-59
2021/09/12 00:38:29;;;;;;;14.50;7.45;;;;;;;15.94;66.23;100910.00;1670315;86;20311;-59
2021/09/12 00:41:03;;;;;;;11.65;7.65;;;;;;;15.90;66.43;100916.58;1670015;86;21192;-59
2021/09/12 00:43:38;;;;;;;15.75;7.97;;;;;;;15.90;66.53;100918.38;1670173;86;21172;-59
2021/09/12 00:46:11;;;;;;;14.13;8.83;;;;;;;15.89;66.58;100920.19;1671444;86;21160;-60
2021/09/12 00:48:46;;;;;;;11.90;7.97;;;;;;;15.86;66.67;100915.20;1670037;86;21810;-59
2021/09/12 00:51:19;;;;;;;17.77;8.60;;;;;;;15.82;66.71;100913.03;1671828;86;21161;-59
2021/09/12 00:53:53;;;;;;;14.30;7.90;;;;;;;15.74;66.74;100904.55;1670047;86;21204;-59
2021/09/12 00:56:28;;;;;;;11.90;8.05;;;;;;;15.69;66.89;100903.38;1668874;85;21271;-59
2021/09/12 00:59:01;;;;;;;12.53;7.87;;;;;;;15.63;67.07;100904.81;1671424;86;21199;-59
2021/09/12 01:01:35;;;;;;;17.07;8.75;;;;;;;15.57;67.29;100908.04;1671451;86;21160;-59
2021/09/12 01:04:10;;;;;;;13.60;7.65;;;;;;;15.53;67.49;100901.91;1669879;86;21312;-60
2021/09/12 01:06:45;;;;;;;14.18;8.43;;;;;;;15.48;67.71;100907.16;1669856;86;21244;-59
2021/09/12 01:09:17;;;;;;;;;;;;;;;15.45;67.84;100902.69;1673796;86;21260;-59
2021/09/12 01:11:51;;;;;;;14.87;8.18;;;;;;;15.44;67.96;100916.81;1671738;86;20171;-59
2021/09/12 01:14:27;;;;;;;16.40;8.73;;;;;;;15.37;68.02;100904.73;1670002;86;21192;-59
2021/09/12 01:17:01;;;;;;;15.10;8.15;;;;;;;15.32;68.08;100904.34;1671330;86;21320;-59
2021/09/12 01:19:35;;;;;;;13.90;8.48;;;;;;;15.28;68.19;100902.16;1669853;85;21177;-59
2021/09/12 01:22:08;;;;;;;11.77;8.37;;;;;;;15.24;68.36;100907.38;1671542;86;21137;-59
2021/09/12 01:24:41;;;;;;;13.85;8.58;;;;;;;15.19;68.54;100897.28;1671331;86;21200;-57
2021/09/12 01:27:15;;;;;;;12.10;8.10;;;;;;;15.18;68.69;100901.39;1671497;86;21742;-58
2021/09/12 01:29:48;;;;;;;18.07;8.83;;;;;;;15.15;68.82;100899.89;1671640;86;21283;-57
2021/09/12 01:32:25;;;;;;;13.72;8.25;;;;;;;15.13;68.98;100895.25;1671684;86;21279;-59
2021/09/12 01:34:58;;;;;;;16.30;8.73;;;;;;;15.13;69.13;100895.25;1647484;86;21326;-58
2021/09/12 01:37:32;;;;;;;15.18;9.13;;;;;;;15.12;69.25;100892.27;1671413;86;21268;-58
2021/09/12 01:40:06;;;;;;;;;;;;;;;15.12;69.33;100902.81;1672412;86;21165;-58
2021/09/12 01:42:39;;;;;;;15.53;8.00;;;;;;;15.12;69.42;100894.06;1671274;86;20238;-58
2021/09/12 01:45:13;;;;;;;14.03;8.25;;;;;;;15.11;69.64;100905.61;1671065;86;21280;-58
2021/09/12 01:47:46;;;;;;;14.07;8.30;;;;;;;15.12;69.73;100905.45;1671396;86;21271;-58
2021/09/12 01:50:19;;;;;;;15.00;8.78;;;;;;;15.13;69.75;100902.33;1670413;86;21229;-58
2021/09/12 01:52:52;;;;;;;15.30;8.73;;;;;;;15.14;69.77;100900.85;1671718;86;21201;-58
2021/09/12 01:55:25;;;;;;;15.18;9.33;;;;;;;15.15;69.78;100903.01;1670957;86;21747;-58
2021/09/12 01:57:58;;;;;;;13.83;8.18;;;;;;;15.15;69.78;100905.16;1671420;86;21319;-59
2021/09/12 02:00:31;;;;;;;17.00;8.67;;;;;;;15.16;69.81;100907.31;1671656;86;21268;-58
2021/09/12 02:03:05;;;;;;;13.28;8.48;;;;;;;15.16;69.78;100902.88;1671387;86;21165;-58
2021/09/12 02:05:38;;;;;;;15.25;8.13;;;;;;;15.16;69.86;100898.92;1670764;86;21287;-59
2021/09/12 02:08:12;;;;;;;13.62;8.28;;;;;;;15.16;69.90;100904.20;1671775;86;21192;-59
2021/09/12 02:10:45;;;;;;;12.05;8.70;;;;;;;15.18;69.92;100902.23;1671332;86;21191;-59
2021/09/12 02:13:19;;;;;;;17.70;8.38;;;;;;;15.19;69.94;100909.66;1671539;86;21267;-58
2021/09/12 02:15:53;;;;;;;19.87;8.83;;;;;;;15.17;69.91;100905.83;1669805;86;21188;-59
2021/09/12 02:18:27;;;;;;;14.50;7.80;;;;;;;15.16;69.96;100904.20;1671387;86;21311;-59
2021/09/12 02:21:00;;;;;;;;;;;;;;;15.15;70.00;100902.52;1672100;85;21215;-58
2021/09/12 02:23:33;;;;;;;15.88;7.72;;;;;;;15.17;70.04;100906.31;1672542;86;20186;-59
2021/09/12 02:26:08;;;;;;;17.95;8.65;;;;;;;15.15;70.09;100900.37;1673831;86;21172;-58
2021/09/12 02:28:41;;;;;;;13.68;8.28;;;;;;;15.16;70.15;100908.64;1674629;86;21266;-58
2021/09/12 02:31:14;;;;;;;14.50;8.83;;;;;;;15.17;70.16;100903.20;1674623;86;21193;-58
2021/09/12 02:33:47;;;;;;;13.53;8.73;;;;;;;15.18;70.18;100906.67;1674406;86;21342;-58
2021/09/12 02:36:21;;;;;;;17.75;8.08;;;;;;;15.19;70.17;100903.88;1673775;86;21296;-58
2021/09/12 02:38:56;;;;;;;10.95;7.95;;;;;;;15.21;70.21;100903.23;1674160;86;21272;-59
2021/09/12 02:41:29;;;;;;;12.93;7.67;;;;;;;15.24;70.21;100903.42;1674418;86;21323;-59
2021/09/12 02:44:02;;;;;;;18.67;8.93;;;;;;;15.26;70.24;100905.44;1674411;86;21275;-59
2021/09/12 02:46:35;;;;;;;16.33;8.77;;;;;;;15.29;70.30;100903.80;1673650;86;21263;-59
2021/09/12 02:49:09;;;;;;;14.93;7.78;;;;;;;15.29;70.30;100898.52;1673905;86;21341;-59
2021/09/12 02:51:43;;;;;;;;;;;;;;;15.31;70.30;100903.16;1675462;86;21149;-59
2021/09/12 02:54:16;;;;;;;13.60;7.95;;;;;;;15.31;70.26;100901.84;1674403;86;20237;-59
2021/09/12 02:56:49;;;;;;;13.58;7.58;;;;;;;15.28;70.30;100903.00;1673765;86;21298;-59
2021/09/12 02:59:22;;;;;;;16.97;8.00;;;;;;;15.28;70.29;100906.12;1651271;86;21344;-59
2021/09/12 03:01:55;;;;;;;21.10;7.90;;;;;;;15.28;70.29;100908.76;1674432;86;21271;-59
2021/09/12 03:04:30;;;;;;;17.95;8.33;;;;;;;15.26;70.32;100908.89;1672714;85;21164;-59
2021/09/12 03:07:04;;;;;;;37.20;8.75;;;;;;;15.26;70.44;100911.52;1673649;86;21276;-59
2021/09/12 03:09:36;;;;;;;18.45;8.08;;;;;;;15.25;70.51;100901.97;1674513;86;21711;-59
2021/09/12 03:12:10;;;;;;;;;;;;;;;15.25;70.58;100900.66;1675326;86;21152;-59
2021/09/12 03:14:43;;;;;;;14.73;8.08;;;;;;;15.25;70.64;100905.09;1651228;86;20216;-59
2021/09/12 03:17:17;;;;;;;14.73;8.30;;;;;;;15.20;70.68;100904.70;1673663;86;21193;-59
2021/09/12 03:19:50;;;;;;;;;;;;;;;15.19;70.67;100906.52;1675294;86;21168;-59
2021/09/12 03:22:23;;;;;;;16.75;8.68;;;;;;;15.17;70.72;100901.05;1674483;86;20155;-60
2021/09/12 03:24:57;;;;;;;21.30;8.65;;;;;;;15.15;70.84;100903.01;1670010;86;21168;-59
2021/09/12 03:27:31;;;;;;;;;;;;;;;15.14;70.87;100902.69;1672422;86;21160;-59
2021/09/12 03:30:04;;;;;;;14.68;8.35;;;;;;;15.15;70.90;100905.16;1671605;86;20255;-59
2021/09/12 03:32:37;;;;;;;16.87;8.65;;;;;;;15.15;71.00;100901.69;1671472;86;21315;-58
2021/09/12 03:35:11;;;;;;;16.95;8.63;;;;;;;15.17;71.10;100902.36;1671296;86;21335;-59
2021/09/12 03:37:46;;;;;;;16.82;8.70;;;;;;;15.20;71.09;100900.75;1670377;86;21216;-58
2021/09/12 03:40:19;;;;;;;15.60;8.35;;;;;;;15.24;71.03;100903.42;1671324;86;21294;-58
2021/09/12 03:42:52;;;;;;;13.72;9.38;;;;;;;15.25;70.90;100898.02;1671483;86;21267;-58
2021/09/12 03:45:25;;;;;;;15.03;8.43;;;;;;;15.28;70.81;100906.95;1671336;86;21295;-60
2021/09/12 03:47:58;;;;;;;15.40;8.70;;;;;;;15.31;70.75;100905.80;1670488;86;21272;-58
2021/09/12 03:50:31;;;;;;;14.38;8.28;;;;;;;15.34;70.66;100906.82;1670439;86;21311;-58
2021/09/12 03:53:06;;;;;;;18.95;9.45;;;;;;;15.39;70.60;100907.20;1671653;86;21744;-57
2021/09/12 03:55:39;;;;;;;33.00;16.25;;;;;;;15.43;70.53;100913.34;1671582;86;21196;-57
2021/09/12 03:58:12;;;;;;;84.92;37.33;;;;;;;15.48;70.42;100909.80;1670823;86;21240;-58
2021/09/12 04:00:46;;;;;;;80.85;34.55;;;;;;;15.54;70.34;100907.05;1671501;86;21169;-58
2021/09/12 04:03:19;;;;;;;79.20;36.30;;;;;;;15.63;70.25;100910.57;1671460;86;21274;-58
2021/09/12 04:05:52;;;;;;;137.03;62.47;;;;;;;15.73;70.03;100913.95;1671580;86;21877;-58
2021/09/12 04:08:26;;;;;;;165.88;69.47;;;;;;;15.89;69.75;100927.28;1670182;86;21558;-58
2021/09/12 04:11:00;;;;;;;223.87;102.17;;;;;;;16.25;69.41;100924.88;1669979;86;21216;-58
2021/09/12 04:13:33;;;;;;;;;;;;;;;16.52;68.60;100926.55;1672316;85;21168;-58
2021/09/12 04:16:06;;;;;;;138.52;69.10;;;;;;;16.68;67.99;100924.81;1671021;86;20608;-58
2021/09/12 04:18:41;;;;;;;111.30;56.18;;;;;;;16.79;67.44;100934.25;1669897;85;21196;-58
2021/09/12 04:21:15;;;;;;;171.07;84.75;;;;;;;16.88;66.91;100932.00;1671145;86;21354;-58
2021/09/12 04:23:48;;;;;;;;;;;;;;;16.95;66.58;100931.69;1672112;85;21711;-59
2021/09/12 04:26:21;;;;;;;69.55;35.48;;;;;;;17.03;66.27;100934.34;1672647;86;20243;-59
2021/09/12 04:28:57;;;;;;;81.87;41.42;;;;;;;17.09;65.94;100935.03;1673117;86;21275;-60
2021/09/12 04:31:30;;;;;;;71.05;33.85;;;;;;;17.19;65.68;100926.95;1674065;86;21188;-60
2021/09/12 04:34:03;;;;;;;69.95;33.33;;;;;;;17.32;65.35;100933.91;1674401;86;21192;-59
2021/09/12 04:36:36;;;;;;;73.62;36.53;;;;;;;17.45;65.03;100929.81;1674214;86;21294;-59
2021/09/12 04:39:10;;;;;;;91.47;46.42;;;;;;;17.61;64.64;100932.98;1673058;86;21172;-60
2021/09/12 04:41:44;;;;;;;81.12;46.65;;;;;;;17.75;64.14;100934.97;1673999;86;21350;-60
2021/09/12 04:44:17;;;;;;;68.85;37.75;;;;;;;17.85;63.75;100930.34;1674335;86;21212;-60
2021/09/12 04:46:50;;;;;;;76.37;41.88;;;;;;;17.99;63.45;100928.34;1673965;86;21303;-58
2021/09/12 04:49:24;;;;;;;83.87;43.80;;;;;;;18.25;63.09;100929.94;1673136;86;21338;-58
2021/09/12 04:51:57;;;;;;;66.50;35.38;;;;;;;18.90;62.18;100931.91;1673970;86;21283;-58
2021/09/12 04:54:31;;;;;;;69.92;37.40;;;;;;;19.43;60.53;100932.80;1674540;86;21133;-58
2021/09/12 04:57:05;;;;;;;62.67;33.65;;;;;;;19.71;59.21;100926.92;1674139;86;21371;-58
2021/09/12 04:59:38;;;;;;;51.58;30.27;;;;;;;19.99;58.51;100929.35;1673137;86;21196;-58
2021/09/12 05:02:12;;;;;;;52.05;29.45;;;;;;;20.65;57.49;100924.50;1673976;86;21192;-58
2021/09/12 05:04:45;;;;;;;;;;;;;;;21.08;56.22;100921.47;1676831;86;21168;-58
2021/09/12 05:07:19;;;;;;;73.47;41.05;;;;;;;21.31;55.24;100919.45;1672842;86;20171;-59
2021/09/12 05:09:52;;;;;;;77.70;43.42;;;;;;;21.47;54.49;100921.86;1673119;86;21208;-58
2021/09/12 05:12:27;;;;;;;83.25;47.60;;;;;;;21.64;53.79;100919.27;1673932;86;21310;-58
2021/09/12 05:15:01;;;;;;;81.55;46.30;;;;;;;22.13;52.77;100917.45;1674270;86;21318;-60
2021/09/12 05:17:35;;;;;;;60.08;34.38;;;;;;;22.71;51.58;100917.47;1673894;86;21251;-58
2021/09/12 05:20:10;;;;;;;48.50;30.88;;;;;;;23.34;49.81;100912.23;1672850;85;21171;-59
2021/09/12 05:22:43;;;;;;;36.93;22.40;;;;;;;24.28;47.89;100910.73;1673800;86;21311;-59
2021/09/12 05:25:16;;;;;;;27.35;16.57;;;;;;;25.06;46.03;100909.64;1674369;86;21259;-59
2021/09/12 05:27:50;;;;;;;23.70;13.90;;;;;;;26.04;43.68;100906.25;1669916;85;21164;-60
2021/09/12 05:30:24;;;;;;;24.57;12.58;;;;;;;26.99;41.65;100908.84;1669992;85;21177;-60
2021/09/12 05:32:57;;;;;;;23.42;11.93;;;;;;;27.96;39.63;100905.17;1671144;86;21236;-61
2021/09/12 05:35:31;;;;;;;18.90;10.78;;;;;;;28.91;37.99;100907.50;1671716;86;21256;-60
2021/09/12 05:38:04;;;;;;;19.05;9.10;;;;;;;29.79;36.06;100901.83;1670928;86;21838;-61
2021/09/12 05:40:36;;;;;;;;;;;;;;;30.70;33.83;100898.23;1673783;86;21271;-60
2021/09/12 05:43:09;;;;;;;9.53;6.30;;;;;;;31.36;32.09;100895.16;1670814;86;20235;-61
2021/09/12 05:45:43;;;;;;;13.60;6.28;;;;;;;31.73;30.69;100896.05;1669869;86;21172;-61
2021/09/12 05:48:16;;;;;;;;;;;;;;;32.18;30.16;100891.48;1673198;86;21343;-60
2021/09/12 05:50:49;;;;;;;8.28;5.42;;;;;;;32.67;29.54;100893.91;1670046;86;20162;-62
2021/09/12 05:53:25;;;;;;;8.93;5.80;;;;;;;33.16;28.49;100890.53;1652747;86;21863;-62
2021/09/12 05:55:59;;;;;;;11.57;6.28;;;;;;;33.53;27.71;100888.11;1644128;87;21181;-63
2021/09/12 05:58:32;;;;;;;15.08;8.35;;;;;;;33.28;27.59;100884.84;1619851;87;21213;-64
2021/09/12 06:01:05;;;;;;;16.60;8.13;;;;;;;33.30;27.65;100884.02;1644413;87;21209;-61
2021/09/12 06:03:39;;;;;;;8.53;6.53;;;;;;;33.68;27.22;100890.29;1645469;84;21369;-61
2021/09/12 06:06:12;;;;;;;9.50;5.62;;;;;;;33.93;26.23;100888.63;1665259;86;21311;-61
2021/09/12 06:08:46;;;;;;;6.58;4.30;;;;;;;34.32;25.99;100885.00;1669877;86;21209;-63
2021/09/12 06:11:19;;;;;;;6.47;4.50;;;;;;;34.52;25.46;100889.55;1667464;86;21307;-65
2021/09/12 06:13:54;;;;;;;7.12;4.00;;;;;;;34.63;25.43;100889.00;1650954;86;21213;-62
2021/09/12 06:16:28;;;;;;;6.45;4.22;;;;;;;34.72;25.01;100892.21;1669274;86;21164;-62
2021/09/12 06:19:01;;;;;;;6.92;4.25;;;;;;;34.91;24.87;100899.99;1660547;84;21271;-63
2021/09/12 06:21:36;;;;;;;9.35;4.17;;;;;;;35.56;24.21;100897.95;1671644;86;21307;-62
2021/09/12 06:24:09;;;;;;;9.03;4.00;;;;;;;36.11;23.34;100900.70;1669830;86;21174;-62
2021/09/12 06:26:44;;;;;;;6.95;3.72;;;;;;;36.53;22.85;100891.21;1669862;86;21240;-62
2021/09/12 06:29:17;;;;;;;9.58;4.33;;;;;;;36.94;22.42;100900.50;1670619;86;21303;-62
2021/09/12 06:31:51;;;;;;;6.80;4.70;;;;;;;37.45;21.67;100899.16;1671580;86;21129;-62
2021/09/12 06:34:25;;;;;;;6.95;4.55;;;;;;;37.77;20.99;100900.52;1643512;87;21313;-63
2021/09/12 06:37:00;;;;;;;5.47;3.60;;;;;;;37.98;21.08;100906.99;1620489;87;21295;-63
2021/09/12 06:39:34;;;;;;;9.73;4.28;;;;;;;38.57;20.37;100897.36;1643276;87;21260;-63
2021/09/12 06:42:08;;;;;;;9.83;6.15;;;;;;;39.00;19.62;100893.69;1644266;87;21224;-63
2021/09/12 06:44:42;;;;;;;8.15;5.92;;;;;;;39.04;19.41;100895.48;1643504;87;21873;-62
2021/09/12 06:47:15;;;;;;;8.08;5.08;;;;;;;39.14;18.97;100897.73;1644329;87;21671;-62
2021/09/12 06:49:48;;;;;;;6.20;3.25;;;;;;;39.33;18.54;100897.02;1642756;87;21303;-63
2021/09/12 06:52:22;;;;;;;6.92;2.80;;;;;;;39.49;18.55;100894.13;1644140;87;21280;-62
2021/09/12 06:54:56;;;;;;;7.12;2.65;;;;;;;39.73;18.25;100896.55;1642821;87;21178;-63
2021/09/12 06:57:30;;;;;;;6.83;2.85;;;;;;;40.18;17.84;100883.80;1644031;87;21327;-63
2021/09/12 07:00:06;;;;;;;4.00;2.77;;;;;;;40.61;17.23;100892.16;1643310;87;21211;-63
2021/09/12 07:02:40;;;;;;;3.05;2.45;;;;;;;41.06;16.97;100889.94;1644167;87;21709;-63
2021/09/12 07:05:15;;;;;;;10.63;3.85;;;;;;;41.41;16.41;100888.01;1651715;84;21351;-62
2021/09/12 07:07:50;;;;;;;10.72;3.35;;;;;;;41.36;16.30;100894.48;1656952;84;21161;-63
2021/09/12 07:10:23;;;;;;;5.22;3.05;;;;;;;41.31;16.57;100896.02;1662431;84;21967;-65
2021/09/12 07:12:57;;;;;;;6.00;3.10;;;;;;;41.19;16.55;100891.72;1670643;86;21322;-63
2021/09/12 07:15:30;;;;;;;4.42;2.85;;;;;;;41.00;16.65;100888.51;1645632;86;21324;-62
2021/09/12 07:18:04;;;;;;;5.40;3.62;;;;;;;40.92;16.51;100890.67;1670027;86;21276;-63
2021/09/12 07:20:38;;;;;;;8.95;3.55;;;;;;;40.96;16.61;100884.80;1669737;86;21960;-66
2021/09/12 07:23:13;;;;;;;18.73;5.17;;;;;;;41.26;16.61;100891.22;1670447;86;21204;-64
2021/09/12 07:25:47;;;;;;;7.85;4.22;;;;;;;41.62;16.11;100877.36;1669262;86;21342;-64
2021/09/12 07:28:21;;;;;;;6.22;3.47;;;;;;;41.84;15.66;100883.22;1670692;86;21406;-64
2021/09/12 07:30:56;;;;;;;5.25;2.62;;;;;;;41.78;15.78;100884.52;1672910;86;21299;-63
2021/09/12 07:33:30;;;;;;;9.98;3.17;;;;;;;41.80;15.51;100880.87;1674403;86;21844;-62
2021/09/12 07:36:05;;;;;;;11.03;3.30;;;;;;;41.68;15.71;100880.72;1673158;86;21306;-63
2021/09/12 07:38:39;;;;;;;2.92;2.50;;;;;;;41.46;15.86;100883.12;1674552;86;21311;-63
2021/09/12 07:41:12;;;;;;;3.92;2.30;;;;;;;41.43;15.67;100883.80;1673213;86;21853;-65
2021/09/12 07:43:45;;;;;;;5.47;3.05;;;;;;;41.54;15.41;100878.18;1680783;84;21186;-65
2021/09/12 07:46:20;;;;;;;5.15;2.52;;;;;;;41.76;14.96;100878.55;1672229;86;21225;-64
2021/09/12 07:48:54;;;;;;;9.05;3.15;;;;;;;42.01;15.04;100883.12;1669785;85;21310;-64
2021/09/12 07:51:32;;;;;;;3.55;2.72;;;;;;;42.42;15.13;100866.52;1668832;85;21449;-65
2021/09/12 07:54:06;;;;;;;5.20;2.95;;;;;;;42.77;14.71;100865.14;1699764;84;21270;-64
2021/09/12 07:56:39;;;;;;;4.70;3.52;;;;;;;42.86;14.59;100862.55;1700589;84;21405;-66
2021/09/12 07:59:15;;;;;;;21.37;3.85;;;;;;;42.73;14.08;100860.87;1681441;84;21264;-63
2021/09/12 08:06:02;;;;;;;5.45;3.02;;;;;;;42.94;13.76;100862.28;1592975;89;21307;-68
2021/09/12 08:08:50;;;;;;;2.92;2.40;;;;;;;43.16;13.43;100846.73;1630909;86;21759;-67
2021/09/12 08:11:40;;;;;;;3.67;2.33;;;;;;;43.37;13.22;100851.66;1641609;86;21262;-66
2021/09/12 08:14:24;;;;;;;12.43;3.17;;;;;;;43.30;13.35;100840.96;1642337;86;21310;-68
2021/09/12 08:17:02;;;;;;;5.87;2.90;;;;;;;43.06;13.60;100838.09;1642813;86;21466;-68
2021/09/12 08:19:45;;;;;;;3.95;2.58;;;;;;;43.38;13.52;100841.42;1642695;86;21294;-68
2021/09/12 08:22:26;;;;;;;8.80;2.58;;;;;;;43.62;13.03;100829.63;1641980;86;21374;-67
2021/09/12 08:25:12;;;;;;;2.85;2.42;;;;;;;43.91;12.86;100834.39;1642040;86;21184;-69
2021/09/12 08:27:53;;;;;;;4.70;2.80;;;;;;;43.96;12.78;100836.92;1642794;86;21329;-68
2021/09/12 08:30:36;;;;;;;4.67;2.45;;;;;;;43.78;12.93;100842.42;1642409;86;21872;-66
2021/09/12 08:33:23;;;;;;;3.47;2.42;;;;;;;43.25;13.08;100832.31;1641918;86;21892;-67
2021/09/12 08:35:59;;;;;;;5.37;2.25;;;;;;;42.73;13.47;100826.44;1642243;86;21294;-66
2021/09/12 08:38:33;;;;;;;5.28;2.45;;;;;;;42.28;13.65;100828.81;1642823;86;21381;-67
2021/09/12 08:41:09;;;;;;;3.35;2.27;;;;;;;42.06;13.82;100826.55;1642141;86;21187;-66
2021/09/12 08:43:48;;;;;;;7.15;2.75;;;;;;;41.98;13.98;100824.66;1642944;86;21365;-65
2021/09/12 08:46:25;;;;;;;4.40;2.45;;;;;;;41.93;13.98;100823.47;1641862;86;21254;-66
2021/09/12 08:48:59;;;;;;;6.40;2.72;;;;;;;41.87;14.15;100824.78;1642713;87;21305;-65
2021/09/12 08:51:37;;;;;;;3.27;2.50;;;;;;;41.73;14.05;100828.33;1642462;87;21171;-67
2021/09/12 08:54:19;;;;;;;2.80;2.55;;;;;;;41.31;14.19;100816.34;1642303;86;21302;-65
2021/09/12 08:56:54;;;;;;;7.70;2.50;;;;;;;40.90;14.61;100820.98;1642287;87;21702;-69
2021/09/12 08:59:34;;;;;;;9.25;2.90;;;;;;;40.81;14.72;100822.09;1641955;86;21314;-69
2021/09/12 09:02:09;;;;;;;8.08;2.90;;;;;;;40.76;14.68;100819.50;1642078;86;21873;-64
2021/09/12 09:04:43;;;;;;;4.55;2.35;;;;;;;40.45;14.84;100816.91;1619589;87;21358;-64
2021/09/12 09:07:17;;;;;;;9.18;2.60;;;;;;;40.19;14.92;100818.22;1642051;86;21294;-65
2021/09/12 09:09:50;;;;;;;5.00;2.27;;;;;;;40.02;15.15;100822.30;1642140;87;21302;-65
2021/09/12 09:12:38;;;;;;;4.53;2.45;;;;;;;39.95;15.35;100812.87;1642246;86;21303;-66
2021/09/12 09:15:20;;;;;;;3.62;2.58;;;;;;;39.98;15.38;100806.20;1641878;86;21754;-67
2021/09/12 09:17:54;;;;;;;5.78;3.58;;;;;;;39.95;15.42;100806.84;1642253;87;21167;-64
2021/09/12 09:20:31;;;;;;;4.28;2.87;;;;;;;39.73;15.56;100799.24;1620738;86;21814;-67
2021/09/12 09:23:08;;;;;;;6.20;2.80;;;;;;;39.14;15.99;100795.84;1642298;87;21821;-64
2021/09/12 09:25:41;;;;;;;4.37;2.87;;;;;;;38.03;16.32;100797.55;1642525;86;21239;-65
2021/09/12 09:28:15;;;;;;;5.90;2.47;;;;;;;36.75;17.12;100800.06;1641953;86;21231;-64
2021/09/12 09:30:57;;;;;;;6.67;3.02;;;;;;;35.74;18.07;100799.15;1616362;87;21365;-65
2021/09/12 09:33:30;;;;;;;21.37;12.05;;;;;;;35.00;18.86;100803.06;1637177;87;21706;-65
2021/09/12 09:36:07;;;;;;;10.88;4.17;;;;;;;34.43;19.36;100805.05;1636850;87;21195;-65
2021/09/12 09:38:46;;;;;;;9.63;3.02;;;;;;;33.77;20.16;100797.66;1637337;87;21298;-64
2021/09/12 09:41:20;;;;;;;5.70;3.02;;;;;;;33.15;21.06;100802.06;1636995;87;21750;-67
2021/09/12 09:43:56;;;;;;;5.97;3.12;;;;;;;32.72;21.56;100801.17;1637183;87;21887;-65
2021/09/12 09:46:41;;;;;;;3.85;2.85;;;;;;;32.18;21.91;100801.27;1637394;87;21298;-66
2021/09/12 09:49:30;;;;;;;8.95;3.25;;;;;;;31.65;23.45;100798.25;1636669;87;21298;-65
2021/09/12 09:52:03;;;;;;;6.58;3.12;;;;;;;31.09;24.74;100797.02;1637065;87;21282;-65
2021/09/12 09:54:38;;;;;;;9.53;3.20;;;;;;;30.52;25.28;100798.84;1637173;87;21333;-64
2021/09/12 09:57:13;;;;;;;5.12;2.87;;;;;;;30.19;25.83;100798.97;1636612;87;21413;-66
2021/09/12 09:59:48;;;;;;;6.25;3.25;;;;;;;30.02;25.96;100793.37;1636909;87;21844;-65
2021/09/12 10:02:22;;;;;;;7.95;3.15;;;;;;;29.94;25.96;100791.39;1636875;87;21361;-64
2021/09/12 10:04:59;;;;;;;3.95;2.72;;;;;;;29.90;26.19;100790.23;1636787;87;21231;-65
2021/09/12 10:07:35;;;;;;;7.87;3.15;;;;;;;29.83;26.63;100788.80;1636394;87;21171;-64
2021/09/12 10:10:11;;;;;;;5.22;2.98;;;;;;;29.76;26.82;100792.16;1637012;87;21313;-65
2021/09/12 10:12:52;;;;;;;7.47;2.90;;;;;;;29.67;26.34;100791.77;1637296;87;21866;-66
2021/09/12 10:15:35;;;;;;;9.05;2.70;;;;;;;29.61;25.82;100793.30;1637719;87;21773;-67
2021/09/12 10:18:09;;;;;;;5.72;3.58;;;;;;;29.54;25.44;100787.27;1635937;87;21219;-67
2021/09/12 10:20:43;;;;;;;13.90;4.47;;;;;;;29.48;25.79;100786.37;1636812;87;21805;-66
2021/09/12 10:23:17;;;;;;;8.05;3.10;;;;;;;29.44;26.60;100787.11;1636653;87;21215;-66
2021/09/12 10:25:53;;;;;;;;;;;;;;;29.32;26.85;100785.33;1639737;87;21231;-66
2021/09/12 10:28:35;;;;;;;10.05;3.42;;;;;;;29.22;27.14;100790.55;1637597;87;20161;-65
2021/09/12 10:31:32;;;;;;;10.37;3.53;;;;;;;29.08;27.07;100791.91;1610637;88;21839;-64
2021/09/12 10:34:10;;;;;;;8.18;3.40;;;;;;;28.97;26.30;100795.47;1629318;86;21354;-64
2021/09/12 10:36:45;;;;;;;7.20;3.47;;;;;;;28.86;26.17;100795.02;1616995;89;21346;-66
2021/09/12 10:39:37;;;;;;;19.92;11.20;;;;;;;28.69;26.21;100785.56;1630198;88;21367;-65
2021/09/12 10:42:16;;;;;;;18.25;11.88;;;;;;;28.61;27.22;100793.23;1634166;88;21302;-65
2021/09/12 10:45:16;;;;;;;10.32;4.85;;;;;;;28.56;28.22;100793.09;1634344;87;21375;-65
2021/09/12 10:47:50;;;;;;;8.83;4.50;;;;;;;28.46;28.35;100784.30;1632804;87;21275;-65
2021/09/12 10:50:44;;;;;;;12.05;5.40;;;;;;;28.37;28.62;100787.61;1635470;87;21216;-65
2021/09/12 10:53:18;;;;;;;9.95;4.95;;;;;;;28.28;28.89;100783.11;1634579;87;21840;-65
2021/09/12 10:56:03;;;;;;;6.55;4.25;;;;;;;28.20;29.30;100773.26;1634700;87;21406;-66
2021/09/12 10:58:36;;;;;;;11.05;3.45;;;;;;;28.13;29.46;100778.78;1637519;87;21294;-66
2021/09/12 11:01:11;;;;;;;7.47;3.25;;;;;;;28.04;30.01;100779.66;1576484;89;21253;-67
2021/09/12 11:03:47;;;;;;;10.72;3.87;;;;;;;27.91;29.14;100771.83;1630783;86;21374;-68
2021/09/12 11:06:21;;;;;;;7.58;3.45;;;;;;;27.83;29.37;100773.53;1615562;87;21390;-67
2021/09/12 11:08:53;;;;;;;;;;;;;;;27.72;29.54;100772.20;1627875;88;21196;-68
2021/09/12 11:11:27;;;;;;;17.82;5.83;;;;;;;27.61;29.88;100770.36;1635061;87;20213;-67
2021/09/12 11:14:00;;;;;;;11.40;5.67;;;;;;;27.52;30.27;100774.42;1638674;87;21290;-67
2021/09/12 11:16:33;;;;;;;20.62;5.87;;;;;;;27.44;30.51;100768.90;1577850;90;21232;-67
2021/09/12 11:19:07;;;;;;;10.55;6.12;;;;;;;27.29;30.75;100773.88;1641799;86;21255;-68
2021/09/12 11:21:47;;;;;;;12.30;6.40;;;;;;;27.13;29.85;100767.30;1577243;90;21232;-65
2021/09/12 11:24:27;;;;;;;12.50;6.42;;;;;;;27.06;29.80;100766.59;1640420;87;21273;-69
2021/09/12 11:27:04;;;;;;;18.92;8.58;;;;;;;27.02;29.82;100766.77;1576073;89;21443;-68
2021/09/12 11:29:40;;;;;;;18.30;6.83;;;;;;;26.98;29.99;100764.77;1641125;86;21417;-65
2021/09/12 11:32:20;;;;;;;14.38;6.30;;;;;;;26.93;30.55;100767.33;1576135;90;21391;-66
2021/09/12 11:34:54;;;;;;;8.65;4.72;;;;;;;26.81;30.66;100768.64;1641308;87;21354;-66
2021/09/12 11:37:28;;;;;;;9.33;4.50;;;;;;;26.75;29.76;100768.20;1642148;87;21869;-64
2021/09/12 11:40:01;;;;;;;11.30;4.55;;;;;;;26.69;29.57;100769.10;1642284;86;21338;-68
2021/09/12 11:42:35;;;;;;;11.10;4.92;;;;;;;26.67;29.74;100763.97;1641880;87;21857;-65
2021/09/12 11:45:15;;;;;;;12.43;5.65;;;;;;;26.65;29.61;100761.22;1641829;87;21353;-65
2021/09/12 11:47:49;;;;;;;9.88;4.90;;;;;;;26.62;29.94;100755.78;1641315;86;21199;-65
2021/09/12 11:50:23;;;;;;;8.30;4.25;;;;;;;26.59;30.70;100756.22;1632009;86;21319;-64
2021/09/12 11:52:57;;;;;;;7.78;4.00;;;;;;;26.55;31.09;100759.59;1632815;86;21955;-66
2021/09/12 11:55:32;;;;;;;8.60;3.90;;;;;;;26.49;31.01;100752.44;1642455;87;22573;-66
2021/09/12 11:58:07;;;;;;;12.50;4.58;;;;;;;26.43;30.86;100756.05;1641982;87;21770;-67
2021/09/12 12:00:47;;;;;;;14.60;5.53;;;;;;;26.37;31.51;100761.78;1642280;87;21306;-66
2021/09/12 12:03:26;;;;;;;13.93;4.92;;;;;;;26.31;32.72;100764.05;1636274;86;21326;-66